createdAt,value
2018-07-04T00:01:53.741Z,52.50
2018-07-04T00:04:34.039Z,52.40
2018-07-04T00:07:13.817Z,52.40
2018-07-04T00:09:53.511Z,52.40
2018-07-04T00:12:33.215Z,52.30
2018-07-04T00:15:12.979Z,52.30
2018-07-04T00:17:52.691Z,52.60
2018-07-04T00:20:38.836Z,52.90
2018-07-04T00:23:18.568Z,53.10
2018-07-04T00:25:58.235Z,53.50
2018-07-04T00:28:38.245Z,53.50
2018-07-04T00:31:17.808Z,53.70
2018-07-04T00:33:57.607Z,53.70
2018-07-04T00:36:37.318Z,53.70
2018-07-04T00:39:17.006Z,53.70
2018-07-04T00:41:56.615Z,53.90
2018-07-04T00:44:36.302Z,53.90
2018-07-04T00:47:16.046Z,53.90
2018-07-04T00:49:55.738Z,54.10
2018-07-04T00:52:35.506Z,54.00
2018-07-04T00:57:48.988Z,53.90
2018-07-04T01:00:28.795Z,54.00
2018-07-04T01:03:09.004Z,54.10
2018-07-04T01:05:48.742Z,54.10
2018-07-04T01:08:28.395Z,54.20
2018-07-04T01:11:08.101Z,54.40
2018-07-04T01:13:47.747Z,54.60
2018-07-04T01:16:27.587Z,54.50
2018-07-04T01:19:07.460Z,54.60
2018-07-04T01:21:47.133Z,54.40
2018-07-04T01:24:26.858Z,54.60
2018-07-04T01:27:06.657Z,54.80
2018-07-04T01:34:54.139Z,54.80
2018-07-04T01:37:33.809Z,55.30
2018-07-04T01:40:13.928Z,55.80
2018-07-04T01:42:53.788Z,56.00
2018-07-04T01:45:33.444Z,56.30
2018-07-04T01:48:13.097Z,56.50
2018-07-04T01:50:52.843Z,56.80
2018-07-04T01:53:32.715Z,56.90
2018-07-04T01:56:12.399Z,57.10
2018-07-04T01:58:52.172Z,57.20
2018-07-04T02:01:31.878Z,57.40
2018-07-04T02:04:11.639Z,57.40
2018-07-04T02:06:51.448Z,57.50
2018-07-04T02:09:31.138Z,57.70
2018-07-04T02:12:10.976Z,57.70
2018-07-04T02:14:50.629Z,57.70
2018-07-04T02:17:30.251Z,57.60
2018-07-04T02:20:10.083Z,57.60
2018-07-04T02:22:49.766Z,57.70
2018-07-04T02:25:29.418Z,57.80
2018-07-04T02:28:09.095Z,57.50
2018-07-04T02:30:49.028Z,57.20
2018-07-04T02:33:28.726Z,56.60
2018-07-04T02:36:08.489Z,56.70
2018-07-04T02:38:48.177Z,56.60
2018-07-04T02:41:27.830Z,56.80
2018-07-04T02:44:07.428Z,57.00
2018-07-04T02:46:47.043Z,57.00
2018-07-04T02:49:26.833Z,57.00
2018-07-04T02:52:06.664Z,57.00
2018-07-04T02:54:46.167Z,57.20
2018-07-04T02:57:25.789Z,57.40
2018-07-04T03:00:05.387Z,57.60
2018-07-04T03:02:45.109Z,57.50
2018-07-04T03:05:24.725Z,57.50
2018-07-04T03:08:04.405Z,57.50
2018-07-04T03:13:17.818Z,57.30
2018-07-04T03:15:57.476Z,57.40
2018-07-04T03:18:37.257Z,57.30
2018-07-04T03:21:16.968Z,57.40
2018-07-04T03:23:56.651Z,57.50
2018-07-04T03:26:36.359Z,57.50
2018-07-04T03:29:16.239Z,57.30
2018-07-04T03:31:56.091Z,57.30
2018-07-04T03:34:36.089Z,58.00
2018-07-04T03:37:15.868Z,57.50
2018-07-04T03:39:55.530Z,57.60
2018-07-04T03:42:35.161Z,57.60
2018-07-04T03:45:14.989Z,57.80
2018-07-04T03:47:54.723Z,57.80
2018-07-04T03:50:34.352Z,57.80
2018-07-04T03:53:14.120Z,58.00
2018-07-04T03:55:54.021Z,58.20
2018-07-04T03:58:33.966Z,58.10
2018-07-04T04:01:13.814Z,58.00
2018-07-04T04:03:53.795Z,57.90
2018-07-04T04:06:33.768Z,57.80
2018-07-04T04:09:13.518Z,57.80
2018-07-04T04:11:53.297Z,57.70
2018-07-04T04:14:32.996Z,58.00
2018-07-04T04:17:12.726Z,58.10
2018-07-04T04:19:52.435Z,58.20
2018-07-04T04:22:32.170Z,58.40
2018-07-04T04:25:12.451Z,58.60
2018-07-04T04:27:52.491Z,58.60
2018-07-04T04:30:32.148Z,59.10
2018-07-04T04:33:11.757Z,59.10
2018-07-04T04:35:51.427Z,59.20
2018-07-04T04:38:31.484Z,59.20
2018-07-04T04:41:11.110Z,59.20
2018-07-04T04:43:50.835Z,59.60
2018-07-04T04:46:30.683Z,59.80
2018-07-04T04:54:18.213Z,59.60
2018-07-04T04:56:58.011Z,59.30
2018-07-04T04:59:37.860Z,59.20
2018-07-04T05:02:17.850Z,59.40
2018-07-04T05:04:57.455Z,59.60
2018-07-04T05:07:37.483Z,59.60
2018-07-04T05:10:17.253Z,59.70
2018-07-04T05:12:56.883Z,59.90
2018-07-04T05:15:36.762Z,59.80
2018-07-04T05:18:16.490Z,59.70
2018-07-04T05:20:56.303Z,59.70
2018-07-04T05:26:09.916Z,59.80
2018-07-04T05:28:49.741Z,59.40
2018-07-04T05:31:29.629Z,59.00
2018-07-04T05:34:09.426Z,59.00
2018-07-04T05:36:49.293Z,58.70
2018-07-04T05:39:29.100Z,58.70
2018-07-04T05:44:43.327Z,58.40
2018-07-04T05:47:23.070Z,58.20
2018-07-04T05:50:03.041Z,58.40
2018-07-04T05:52:43.394Z,58.30
2018-07-04T05:55:23.233Z,58.10
2018-07-04T05:58:03.239Z,58.10
2018-07-04T06:00:43.071Z,58.20
2018-07-04T06:03:23.118Z,58.10
2018-07-04T06:06:03.326Z,58.10
2018-07-04T06:08:43.034Z,57.90
2018-07-04T06:11:22.672Z,57.80
2018-07-04T06:14:02.883Z,57.60
2018-07-04T06:16:43.136Z,57.60
2018-07-04T06:19:23.829Z,58.00
2018-07-04T06:22:05.145Z,57.80
2018-07-04T06:24:45.226Z,57.50
2018-07-04T06:27:25.305Z,57.60
2018-07-04T06:30:05.156Z,57.70
2018-07-04T06:32:45.699Z,57.30
2018-07-04T06:35:26.507Z,57.30
2018-07-04T06:37:53.943Z,57.00
2018-07-04T06:40:21.489Z,57.20
2018-07-04T06:42:49.123Z,57.00
2018-07-04T06:47:44.453Z,57.00
2018-07-04T06:50:12.749Z,56.90
2018-07-04T06:52:41.536Z,56.40
2018-07-04T06:55:08.916Z,56.60
2018-07-04T06:57:36.884Z,56.60
2018-07-04T07:00:05.450Z,56.50
2018-07-04T07:02:33.159Z,56.20
2018-07-04T07:05:14.354Z,55.60
2018-07-04T07:07:54.870Z,55.50
2018-07-04T07:10:35.253Z,55.20
2018-07-04T07:13:15.700Z,54.90
2018-07-04T07:15:55.348Z,54.60
2018-07-04T07:18:35.213Z,54.30
2018-07-04T07:21:15.318Z,54.30
2018-07-04T07:23:55.504Z,54.10
2018-07-04T07:26:35.379Z,53.50
2018-07-04T07:31:49.515Z,52.70
2018-07-04T07:34:29.455Z,52.30
2018-07-04T07:37:09.569Z,51.80
2018-07-04T07:39:49.476Z,51.50
2018-07-04T07:42:29.220Z,50.90
2018-07-04T07:45:09.362Z,50.60
2018-07-04T07:47:49.426Z,50.40
2018-07-04T07:50:29.414Z,50.00
2018-07-04T07:53:09.034Z,49.90
2018-07-04T07:55:48.808Z,49.90
2018-07-04T07:58:29.160Z,49.70
2018-07-04T08:01:08.945Z,49.80
2018-07-04T08:03:48.831Z,50.20
2018-07-04T08:06:29.149Z,49.30
2018-07-04T08:09:09.131Z,49.50
2018-07-04T08:11:49.559Z,49.30
2018-07-04T08:14:29.215Z,49.10
2018-07-04T08:17:08.956Z,49.30
2018-07-04T08:19:48.931Z,49.00
2018-07-04T08:22:28.835Z,48.90
2018-07-04T08:25:08.843Z,48.70
2018-07-04T08:27:49.036Z,48.60
2018-07-04T08:30:28.743Z,48.40
2018-07-04T08:33:08.508Z,48.60
2018-07-04T08:35:49.415Z,48.60
2018-07-04T08:38:30.012Z,48.70
2018-07-04T08:41:11.133Z,48.70
2018-07-04T08:43:51.321Z,48.70
2018-07-04T08:46:31.524Z,48.80
2018-07-04T08:49:11.407Z,48.90
2018-07-04T08:51:51.014Z,48.60
2018-07-04T08:54:31.023Z,48.70
2018-07-04T08:57:10.909Z,48.70
2018-07-04T08:59:51.125Z,48.90
2018-07-04T09:02:31.505Z,49.50
2018-07-04T09:05:11.334Z,49.70
2018-07-04T09:07:51.112Z,49.50
2018-07-04T09:10:31.133Z,48.60
2018-07-04T09:13:12.070Z,47.50
2018-07-04T09:15:52.277Z,46.60
2018-07-04T09:18:32.458Z,44.90
2018-07-04T09:21:12.166Z,44.10
2018-07-04T09:23:51.949Z,44.50
2018-07-04T09:26:31.469Z,43.00
2018-07-04T09:29:11.387Z,43.60
2018-07-04T09:31:51.454Z,43.30
2018-07-04T09:34:31.373Z,42.40
2018-07-04T09:37:11.180Z,41.40
2018-07-04T09:39:51.304Z,42.50
2018-07-04T09:42:31.871Z,42.90
2018-07-04T09:45:11.759Z,42.70
2018-07-04T09:47:51.779Z,42.30
2018-07-04T09:50:31.568Z,43.70
2018-07-04T09:53:11.255Z,43.90
2018-07-04T09:55:51.112Z,44.10
2018-07-04T09:58:30.734Z,44.80
2018-07-04T10:01:15.891Z,44.20
2018-07-04T10:03:55.649Z,44.50
2018-07-04T10:06:35.512Z,43.80
2018-07-04T10:09:15.665Z,41.40
2018-07-04T10:11:55.238Z,42.30
2018-07-04T10:14:35.040Z,42.50
2018-07-04T10:17:15.036Z,42.60
2018-07-04T10:19:56.960Z,41.90
2018-07-04T10:22:36.632Z,42.70
2018-07-04T10:25:16.478Z,43.10
2018-07-04T10:27:56.464Z,43.00
2018-07-04T10:30:36.795Z,43.60
2018-07-04T10:33:16.557Z,43.50
2018-07-04T10:35:56.302Z,44.20
2018-07-04T10:38:36.097Z,44.90
2018-07-04T10:41:16.161Z,44.70
2018-07-04T10:43:56.457Z,44.70
2018-07-04T10:46:36.329Z,44.60
2018-07-04T10:49:16.360Z,44.90
2018-07-04T10:51:56.070Z,44.70
2018-07-04T10:57:09.750Z,44.70
2018-07-04T10:59:49.797Z,45.10
2018-07-04T11:02:29.521Z,44.50
2018-07-04T11:07:43.581Z,43.90
2018-07-04T11:10:24.207Z,43.90
2018-07-04T11:13:04.001Z,43.00
2018-07-04T11:15:43.802Z,42.90
2018-07-04T11:18:23.631Z,43.50
2018-07-04T11:21:03.583Z,45.50
2018-07-04T11:23:43.058Z,47.60
2018-07-04T11:26:23.261Z,47.60
2018-07-04T11:29:03.092Z,47.80
2018-07-04T11:31:44.169Z,48.00
2018-07-04T11:34:24.003Z,48.50
2018-07-04T11:39:37.555Z,47.90
2018-07-04T11:42:17.391Z,47.30
2018-07-04T11:44:57.419Z,47.40
2018-07-04T11:47:25.177Z,47.50
2018-07-04T11:49:53.060Z,47.10
2018-07-04T11:52:20.431Z,47.50
2018-07-04T11:57:15.575Z,47.50
2018-07-04T11:59:43.340Z,48.00
2018-07-04T12:02:10.979Z,48.50
2018-07-04T12:04:50.659Z,49.30
2018-07-04T12:07:18.080Z,50.10
2018-07-04T12:09:45.742Z,51.00
2018-07-04T12:12:13.624Z,51.00
2018-07-04T12:14:41.016Z,51.40
2018-07-04T12:17:08.476Z,51.60
2018-07-04T12:19:36.336Z,51.90
2018-07-04T12:22:04.104Z,51.50
2018-07-04T12:24:32.395Z,51.80
2018-07-04T12:27:00.224Z,52.00
2018-07-04T12:29:28.188Z,52.50
2018-07-04T12:31:55.656Z,52.60
2018-07-04T12:34:23.094Z,52.50
2018-07-04T12:36:50.710Z,52.70
2018-07-04T12:39:18.637Z,53.00
2018-07-04T12:41:46.286Z,53.20
2018-07-04T12:44:13.903Z,53.60
2018-07-04T12:46:41.869Z,54.10
2018-07-04T12:49:09.279Z,54.60
2018-07-04T12:51:36.765Z,54.60
2018-07-04T12:54:09.709Z,54.90
2018-07-04T12:56:49.275Z,55.60
2018-07-04T12:59:29.215Z,55.60
2018-07-04T13:02:08.971Z,55.90
2018-07-04T13:04:48.951Z,56.00
2018-07-04T13:07:28.759Z,55.70
2018-07-04T13:10:08.518Z,55.10
2018-07-04T13:12:48.819Z,54.80
2018-07-04T13:15:28.855Z,55.10
2018-07-04T13:18:08.901Z,55.90
2018-07-04T13:20:48.692Z,56.00
2018-07-04T13:23:28.396Z,56.00
2018-07-04T13:26:08.169Z,55.80
2018-07-04T13:28:47.956Z,55.60
2018-07-04T13:31:28.316Z,55.50
2018-07-04T13:34:08.102Z,55.40
2018-07-04T13:36:47.762Z,55.10
2018-07-04T13:39:28.561Z,55.10
2018-07-04T13:42:08.209Z,55.10
2018-07-04T13:44:47.827Z,54.90
2018-07-04T13:47:27.833Z,54.50
2018-07-04T13:50:07.995Z,54.40
2018-07-04T13:52:47.834Z,54.20
2018-07-04T13:55:27.741Z,53.90
2018-07-04T13:58:07.484Z,53.60
2018-07-04T14:00:47.198Z,52.90
2018-07-04T14:03:27.813Z,52.70
2018-07-04T14:06:07.459Z,52.50
2018-07-04T14:08:47.120Z,52.30
2018-07-04T14:11:26.904Z,52.10
2018-07-04T14:14:06.777Z,51.90
2018-07-04T14:16:47.403Z,51.90
2018-07-04T14:19:27.848Z,51.70
2018-07-04T14:22:07.863Z,51.90
2018-07-04T14:24:47.709Z,51.80
2018-07-04T14:30:01.901Z,51.80
2018-07-04T14:32:42.168Z,51.00
2018-07-04T14:35:21.870Z,50.70
2018-07-04T14:38:01.625Z,50.00
2018-07-04T14:40:41.392Z,49.80
2018-07-04T14:43:21.519Z,50.10
2018-07-04T14:46:01.458Z,50.10
2018-07-04T14:48:41.493Z,50.10
2018-07-04T14:51:21.285Z,50.10
2018-07-04T14:54:01.282Z,49.90
2018-07-04T14:56:41.170Z,49.90
2018-07-04T14:59:20.903Z,49.90
2018-07-04T15:02:01.210Z,49.90
2018-07-04T15:04:41.051Z,50.20
2018-07-04T15:07:20.694Z,50.00
2018-07-04T15:10:00.363Z,50.10
2018-07-04T15:12:40.219Z,50.00
2018-07-04T15:15:19.896Z,49.90
2018-07-04T15:17:59.665Z,50.00
2018-07-04T15:20:39.237Z,50.40
2018-07-04T15:23:19.071Z,50.30
2018-07-04T15:25:58.907Z,50.20
2018-07-04T15:28:38.981Z,50.00
2018-07-04T15:31:18.591Z,49.90
2018-07-04T15:33:58.531Z,49.90
2018-07-04T15:36:38.408Z,49.70
2018-07-04T15:39:18.139Z,49.90
2018-07-04T15:44:32.021Z,50.60
2018-07-04T15:47:11.794Z,50.60
2018-07-04T15:49:51.656Z,50.20
2018-07-04T15:52:31.916Z,50.20
2018-07-04T15:55:12.003Z,50.70
2018-07-04T15:57:52.400Z,50.80
2018-07-04T16:00:32.203Z,50.90
2018-07-04T16:03:12.491Z,51.00
2018-07-04T16:05:52.643Z,51.10
2018-07-04T16:08:32.835Z,51.20
2018-07-04T16:11:12.722Z,51.20
2018-07-04T16:13:52.884Z,51.40
2018-07-04T16:16:32.542Z,51.40
2018-07-04T16:19:12.560Z,51.20
2018-07-04T16:21:52.597Z,51.20
2018-07-04T16:24:32.798Z,51.20
2018-07-04T16:27:12.625Z,51.20
2018-07-04T16:29:52.625Z,51.20
2018-07-04T16:32:32.205Z,51.10
2018-07-04T16:35:11.829Z,50.30
2018-07-04T16:37:52.294Z,50.30
2018-07-04T16:40:31.897Z,49.80
2018-07-04T16:43:11.657Z,49.80
2018-07-04T16:45:51.355Z,47.90
2018-07-04T16:48:30.996Z,47.90
2018-07-04T16:51:10.693Z,46.80
2018-07-04T16:53:50.458Z,44.90
2018-07-04T16:56:30.492Z,44.10
2018-07-04T16:59:10.259Z,44.50
2018-07-04T17:01:50.290Z,44.40
2018-07-04T17:04:30.730Z,43.10
2018-07-04T17:07:10.547Z,44.50
2018-07-04T17:09:50.389Z,45.20
2018-07-04T17:12:30.044Z,45.40
2018-07-04T17:15:09.956Z,45.90
2018-07-04T17:17:50.037Z,45.50
2018-07-04T17:20:30.172Z,46.10
2018-07-04T17:23:09.790Z,45.90
2018-07-04T17:25:49.824Z,46.40
2018-07-04T17:28:29.811Z,46.00
2018-07-04T17:31:09.763Z,46.60
2018-07-04T17:33:49.595Z,46.70
2018-07-04T17:36:29.457Z,47.40
2018-07-04T17:39:09.358Z,47.80
2018-07-04T17:41:49.649Z,48.00
2018-07-04T17:44:29.610Z,48.40
2018-07-04T17:47:09.349Z,48.60
2018-07-04T17:49:49.157Z,48.90
2018-07-04T17:52:29.039Z,49.50
2018-07-04T17:55:08.946Z,49.70
2018-07-04T17:57:48.853Z,49.80
2018-07-04T18:00:28.706Z,50.00
2018-07-04T18:03:08.815Z,50.20
2018-07-04T18:05:49.019Z,50.40
2018-07-04T18:08:28.544Z,50.40
2018-07-04T18:11:08.348Z,50.60
2018-07-04T18:13:48.251Z,50.70
2018-07-04T18:16:28.244Z,50.70
2018-07-04T18:19:07.953Z,50.80
2018-07-04T18:21:47.617Z,50.80
2018-07-04T18:24:28.095Z,50.90
2018-07-04T18:27:07.790Z,51.10
2018-07-04T18:29:47.342Z,51.10
2018-07-04T18:32:26.979Z,51.20
2018-07-04T18:35:07.287Z,51.00
2018-07-04T18:37:47.032Z,51.30
2018-07-04T18:40:27.857Z,51.30
2018-07-04T18:43:07.722Z,51.30
2018-07-04T18:45:47.462Z,51.50
2018-07-04T18:48:27.126Z,51.70
2018-07-04T18:51:07.194Z,51.70
2018-07-04T18:53:47.095Z,51.80
2018-07-04T18:56:26.802Z,51.80
2018-07-04T18:59:06.428Z,52.00
2018-07-04T19:01:46.372Z,52.30
2018-07-04T19:04:25.951Z,52.60
2018-07-04T19:07:05.631Z,53.10
2018-07-04T19:09:45.486Z,53.50
2018-07-04T19:12:25.332Z,53.40
2018-07-04T19:15:05.412Z,53.20
2018-07-04T19:17:45.231Z,53.30
2018-07-04T19:20:25.027Z,53.60
2018-07-04T19:23:04.747Z,53.70
2018-07-04T19:28:19.945Z,53.90
2018-07-04T19:30:59.685Z,53.90
2018-07-04T19:33:39.840Z,53.90
2018-07-04T19:36:19.480Z,54.00
2018-07-04T19:41:33.424Z,54.20
2018-07-04T19:44:13.271Z,54.20
2018-07-04T19:46:53.074Z,54.10
2018-07-04T19:49:32.971Z,54.20
2018-07-04T19:52:12.959Z,54.20
2018-07-04T19:54:52.768Z,53.70
2018-07-04T19:57:33.026Z,54.20
2018-07-04T20:00:12.879Z,54.90
2018-07-04T20:02:52.879Z,54.30
2018-07-04T20:05:32.637Z,54.40
2018-07-04T20:08:12.362Z,54.60
2018-07-04T20:10:52.298Z,55.00
2018-07-04T20:13:32.003Z,55.10
2018-07-04T20:16:11.861Z,55.30
2018-07-04T20:18:51.575Z,55.30
2018-07-04T20:21:31.425Z,55.20
2018-07-04T20:24:11.110Z,55.30
2018-07-04T20:26:50.855Z,55.30
2018-07-04T20:29:30.679Z,55.30
2018-07-04T20:32:10.506Z,55.40
2018-07-04T20:34:50.543Z,55.30
2018-07-04T20:37:30.700Z,55.30
2018-07-04T20:40:10.416Z,55.30
2018-07-04T20:42:50.031Z,55.30
2018-07-04T20:45:29.895Z,55.20
2018-07-04T20:48:09.639Z,54.90
2018-07-04T20:50:49.324Z,55.20
2018-07-04T20:53:29.067Z,55.20
2018-07-04T20:56:08.864Z,55.10
2018-07-04T20:58:48.501Z,54.90
2018-07-04T21:01:28.124Z,54.90
2018-07-04T21:04:07.920Z,55.00
2018-07-04T21:06:47.622Z,55.00
2018-07-04T21:09:27.381Z,55.00
2018-07-04T21:12:07.444Z,55.00
2018-07-04T21:14:47.119Z,55.00
2018-07-04T21:17:26.756Z,55.10
2018-07-04T21:20:06.269Z,55.30
2018-07-04T21:22:46.466Z,55.40
2018-07-04T21:25:26.179Z,55.50
2018-07-04T21:28:05.987Z,55.70
2018-07-04T21:30:45.604Z,56.10
2018-07-04T21:33:25.357Z,56.10
2018-07-04T21:36:05.173Z,56.00
2018-07-04T21:38:45.932Z,56.10
2018-07-04T21:43:59.667Z,56.20
2018-07-04T21:46:39.354Z,56.20
2018-07-04T21:49:19.058Z,56.40
2018-07-04T21:51:58.678Z,57.10
2018-07-04T21:54:38.551Z,57.30
2018-07-04T21:57:18.251Z,57.50
2018-07-04T21:59:57.943Z,58.10
2018-07-04T22:02:37.784Z,58.30
2018-07-04T22:05:17.631Z,58.50
2018-07-04T22:07:57.313Z,57.90
2018-07-04T22:10:37.008Z,58.60
2018-07-04T22:13:16.687Z,58.60
2018-07-04T22:15:56.241Z,58.40
2018-07-04T22:18:36.060Z,57.90
2018-07-04T22:21:15.678Z,58.00
2018-07-04T22:23:55.493Z,57.90
2018-07-04T22:26:35.195Z,58.10
2018-07-04T22:29:14.789Z,57.80
2018-07-04T22:31:54.531Z,58.40
2018-07-04T22:34:34.253Z,57.70
2018-07-04T22:37:14.103Z,57.70
2018-07-04T22:39:53.974Z,57.60
2018-07-04T22:42:33.698Z,57.60
2018-07-04T22:45:13.445Z,57.90
2018-07-04T22:47:53.399Z,58.00
2018-07-04T22:50:33.275Z,58.30
2018-07-04T22:53:12.911Z,58.10
2018-07-04T22:55:52.708Z,58.00
2018-07-04T22:58:32.592Z,58.00
2018-07-04T23:01:12.199Z,58.00
2018-07-04T23:06:25.597Z,58.20
2018-07-04T23:09:05.868Z,58.60
2018-07-04T23:11:45.606Z,58.30
2018-07-04T23:14:25.292Z,58.90
2018-07-04T23:17:05.057Z,59.10
2018-07-04T23:19:44.686Z,59.10
2018-07-04T23:22:24.280Z,59.00
2018-07-04T23:25:04.435Z,59.00
2018-07-04T23:27:44.244Z,58.80
2018-07-04T23:30:23.826Z,58.30
2018-07-04T23:33:03.445Z,57.80
2018-07-04T23:35:43.202Z,57.90
2018-07-04T23:38:22.871Z,58.20
2018-07-04T23:41:02.775Z,58.40
2018-07-04T23:43:42.550Z,58.40
2018-07-04T23:46:22.161Z,58.50
2018-07-04T23:49:01.842Z,58.60
2018-07-04T23:51:41.600Z,58.70
2018-07-04T23:54:21.294Z,58.50
2018-07-04T23:57:00.992Z,58.50
2018-07-04T23:59:40.566Z,58.60
